createdAt,value
2023-05-11T00:00:00.473Z,5.30
2023-05-11T00:02:31.179Z,4.80
2023-05-11T00:05:01.008Z,5.10
2023-05-11T00:07:31.353Z,4.70
2023-05-11T00:10:01.276Z,4.50
2023-05-11T00:12:31.452Z,4.80
2023-05-11T00:15:01.473Z,4.90
2023-05-11T00:17:31.575Z,4.10
2023-05-11T00:20:01.577Z,4.40
2023-05-11T00:22:34.255Z,4.70
2023-05-11T00:25:05.301Z,5.20
2023-05-11T00:27:37.623Z,5.80
2023-05-11T00:30:10.638Z,4.60
2023-05-11T00:32:41.112Z,4.80
2023-05-11T00:35:12.481Z,5.20
2023-05-11T00:37:45.155Z,5.00
2023-05-11T00:40:15.543Z,4.80
2023-05-11T00:42:45.637Z,4.90
2023-05-11T00:45:15.730Z,5.00
2023-05-11T00:47:45.930Z,4.50
2023-05-11T00:50:16.473Z,5.30
2023-05-11T00:52:47.942Z,5.10
2023-05-11T00:55:19.675Z,5.40
2023-05-11T00:57:49.806Z,4.90
2023-05-11T01:00:20.266Z,5.10
2023-05-11T01:02:50.681Z,4.60
2023-05-11T01:05:21.671Z,4.80
2023-05-11T01:07:59.282Z,5.30
2023-05-11T01:10:34.735Z,5.40
2023-05-11T01:13:13.931Z,4.80
2023-05-11T01:15:48.711Z,5.40
2023-05-11T01:18:25.710Z,6.50
2023-05-11T01:21:00.920Z,6.40
2023-05-11T01:23:47.180Z,5.90
2023-05-11T01:26:39.440Z,5.70
2023-05-11T01:29:57.974Z,5.40
2023-05-11T01:32:35.035Z,5.70
2023-05-11T01:35:11.444Z,5.60
2023-05-11T01:37:49.506Z,5.50
2023-05-11T01:40:23.819Z,6.40
2023-05-11T01:43:00.604Z,5.10
2023-05-11T01:45:33.675Z,5.60
2023-05-11T01:48:06.915Z,5.30
2023-05-11T01:50:38.483Z,5.40
2023-05-11T01:53:10.446Z,5.20
2023-05-11T01:55:42.822Z,5.50
2023-05-11T01:58:16.469Z,5.60
2023-05-11T02:03:18.728Z,5.20
2023-05-11T02:05:51.476Z,4.80
2023-05-11T02:08:23.376Z,4.80
2023-05-11T02:10:54.841Z,4.90
2023-05-11T02:13:27.078Z,5.40
2023-05-11T02:15:59.072Z,5.00
2023-05-11T02:18:31.086Z,4.90
2023-05-11T02:21:02.839Z,4.20
2023-05-11T02:23:34.508Z,5.90
2023-05-11T02:26:06.573Z,4.80
2023-05-11T02:28:36.819Z,4.70
2023-05-11T02:31:13.307Z,5.00
2023-05-11T02:33:51.561Z,4.70
2023-05-11T02:36:24.437Z,4.30
2023-05-11T02:38:59.269Z,5.20
2023-05-11T02:41:30.762Z,4.70
2023-05-11T02:44:06.804Z,4.20
2023-05-11T02:46:39.903Z,4.70
2023-05-11T02:49:14.030Z,4.30
2023-05-11T02:51:46.492Z,5.60
2023-05-11T02:54:18.358Z,4.70
2023-05-11T02:56:52.071Z,4.70
2023-05-11T02:59:23.463Z,4.40
2023-05-11T03:01:54.738Z,4.80
2023-05-11T03:04:25.131Z,4.20
2023-05-11T03:06:55.585Z,4.70
2023-05-11T03:09:25.980Z,5.40
2023-05-11T03:11:56.408Z,4.10
2023-05-11T03:14:27.111Z,5.00
2023-05-11T03:16:59.339Z,4.80
2023-05-11T03:19:30.127Z,4.40
2023-05-11T03:22:02.070Z,4.60
2023-05-11T03:24:32.576Z,4.30
2023-05-11T03:27:04.142Z,5.00
2023-05-11T03:29:38.132Z,4.90
2023-05-11T03:32:09.097Z,4.80
2023-05-11T03:34:39.902Z,4.60
2023-05-11T03:37:13.672Z,4.40
2023-05-11T03:39:47.232Z,4.60
2023-05-11T03:44:52.663Z,4.30
2023-05-11T03:47:23.775Z,4.60
2023-05-11T03:49:54.663Z,5.30
2023-05-11T03:52:26.031Z,4.50
2023-05-11T03:54:56.817Z,4.60
2023-05-11T03:57:28.022Z,4.60
2023-05-11T03:59:58.033Z,4.70
2023-05-11T04:02:28.244Z,4.90
2023-05-11T04:04:59.139Z,4.20
2023-05-11T04:07:30.980Z,4.60
2023-05-11T04:10:01.104Z,4.10
2023-05-11T04:12:31.620Z,4.80
2023-05-11T04:15:01.817Z,4.60
2023-05-11T04:17:32.235Z,4.30
2023-05-11T04:20:02.553Z,4.70
2023-05-11T04:22:32.589Z,4.60
2023-05-11T04:25:03.069Z,4.70
2023-05-11T04:27:35.349Z,5.00
2023-05-11T04:30:09.642Z,4.00
2023-05-11T04:32:40.162Z,4.00
2023-05-11T04:35:12.296Z,4.30
2023-05-11T04:37:44.597Z,4.70
2023-05-11T04:40:16.340Z,4.30
2023-05-11T04:42:47.704Z,5.10
2023-05-11T04:45:20.899Z,5.00
2023-05-11T04:47:51.451Z,4.20
2023-05-11T04:50:21.634Z,4.10
2023-05-11T04:52:52.002Z,4.20
2023-05-11T04:55:22.314Z,4.20
2023-05-11T04:57:52.607Z,4.60
2023-05-11T05:00:24.047Z,4.40
2023-05-11T05:02:54.188Z,4.40
2023-05-11T05:05:24.604Z,4.50
2023-05-11T05:07:54.614Z,4.70
2023-05-11T05:10:27.418Z,4.60
2023-05-11T05:12:57.796Z,4.50
2023-05-11T05:15:29.592Z,4.10
2023-05-11T05:17:59.883Z,4.70
2023-05-11T05:20:31.323Z,3.90
2023-05-11T05:23:01.801Z,4.50
2023-05-11T05:25:31.959Z,4.30
2023-05-11T05:28:02.047Z,4.10
2023-05-11T05:30:32.082Z,5.10
2023-05-11T05:33:02.762Z,4.00
2023-05-11T05:35:33.083Z,3.90
2023-05-11T05:38:04.238Z,4.10
2023-05-11T05:40:37.264Z,4.40
2023-05-11T05:43:07.561Z,4.50
2023-05-11T05:45:37.688Z,4.60
2023-05-11T05:48:10.006Z,5.10
2023-05-11T05:50:40.368Z,5.00
2023-05-11T05:53:11.110Z,4.40
2023-05-11T05:55:42.711Z,4.90
2023-05-11T05:58:13.175Z,4.50
2023-05-11T06:00:43.440Z,4.50
2023-05-11T06:03:14.040Z,3.90
2023-05-11T06:05:49.697Z,4.30
2023-05-11T06:08:20.450Z,4.60
2023-05-11T06:10:50.655Z,4.90
2023-05-11T06:13:20.901Z,3.60
2023-05-11T06:15:51.001Z,4.00
2023-05-11T06:18:28.034Z,4.30
2023-05-11T06:20:59.152Z,4.20
2023-05-11T06:23:30.049Z,4.60
2023-05-11T06:26:00.606Z,4.60
2023-05-11T06:28:32.051Z,4.90
2023-05-11T06:31:05.093Z,4.00
2023-05-11T06:33:37.990Z,4.40
2023-05-11T06:36:12.713Z,4.40
2023-05-11T06:38:42.902Z,4.10
2023-05-11T06:41:13.060Z,4.20
2023-05-11T06:43:43.105Z,4.10
2023-05-11T06:46:30.408Z,3.90
2023-05-11T06:49:00.661Z,4.30
2023-05-11T06:51:31.783Z,3.80
2023-05-11T06:54:02.922Z,4.50
2023-05-11T06:56:33.813Z,4.40
2023-05-11T06:59:03.912Z,4.20
2023-05-11T07:01:34.043Z,3.60
2023-05-11T07:04:04.316Z,4.60
2023-05-11T07:06:34.950Z,3.70
2023-05-11T07:09:05.114Z,3.60
2023-05-11T07:11:36.366Z,4.30
2023-05-11T07:14:08.055Z,3.80
2023-05-11T07:16:38.406Z,4.50
2023-05-11T07:19:09.575Z,4.00
2023-05-11T07:21:40.269Z,3.70
2023-05-11T07:24:10.566Z,3.90
2023-05-11T07:26:40.781Z,3.80
2023-05-11T07:29:10.948Z,3.80
2023-05-11T07:31:41.012Z,3.50
2023-05-11T07:34:11.176Z,3.70
2023-05-11T07:36:41.301Z,3.50
2023-05-11T07:39:11.732Z,4.70
2023-05-11T07:41:41.956Z,3.80
2023-05-11T07:44:12.074Z,3.80
2023-05-11T07:46:42.050Z,4.00
2023-05-11T07:49:17.357Z,4.20
2023-05-11T07:51:52.985Z,4.00
2023-05-11T07:54:23.232Z,3.80
2023-05-11T07:56:53.393Z,3.60
2023-05-11T07:59:23.910Z,3.70
2023-05-11T08:01:54.237Z,3.80
2023-05-11T08:04:25.025Z,3.20
2023-05-11T08:06:55.220Z,3.40
2023-05-11T08:09:25.304Z,3.30
2023-05-11T08:11:56.265Z,3.50
2023-05-11T08:14:27.326Z,4.50
2023-05-11T08:16:57.659Z,3.20
2023-05-11T08:19:28.121Z,3.90
2023-05-11T08:21:58.645Z,3.90
2023-05-11T08:24:28.540Z,3.70
2023-05-11T08:26:58.655Z,3.40
2023-05-11T08:29:28.805Z,3.10
2023-05-11T08:31:59.113Z,3.50
2023-05-11T08:34:29.498Z,3.20
2023-05-11T08:37:01.400Z,2.90
2023-05-11T08:39:46.114Z,4.10
2023-05-11T08:42:20.761Z,3.70
2023-05-11T08:44:51.195Z,3.50
2023-05-11T08:47:23.588Z,3.40
2023-05-11T08:49:54.690Z,3.50
2023-05-11T08:52:25.463Z,3.70
2023-05-11T08:54:55.692Z,4.10
2023-05-11T08:57:28.574Z,4.00
2023-05-11T08:59:59.127Z,3.90
2023-05-11T09:02:30.121Z,3.80
2023-05-11T09:05:03.890Z,3.50
2023-05-11T09:07:39.987Z,3.40
2023-05-11T09:10:13.648Z,3.80
2023-05-11T09:12:44.014Z,3.40
2023-05-11T09:15:14.354Z,3.30
2023-05-11T09:17:44.599Z,3.70
2023-05-11T09:20:15.179Z,3.50
2023-05-11T09:22:47.178Z,3.70
2023-05-11T09:25:18.236Z,3.70
2023-05-11T09:27:49.170Z,3.80
2023-05-11T09:30:23.199Z,3.00
2023-05-11T09:32:55.235Z,3.70
2023-05-11T09:35:28.294Z,3.40
2023-05-11T09:38:04.530Z,3.00
2023-05-11T09:40:36.129Z,3.00
2023-05-11T09:43:18.413Z,2.90
2023-05-11T09:45:50.250Z,2.80
2023-05-11T09:48:32.052Z,2.50
2023-05-11T09:51:04.586Z,2.80
2023-05-11T09:53:42.929Z,2.70
2023-05-11T09:56:15.351Z,2.60
2023-05-11T09:58:50.843Z,2.00
2023-05-11T10:01:30.276Z,2.00
2023-05-11T10:04:13.434Z,2.20
2023-05-11T10:06:53.535Z,1.80
2023-05-11T10:09:27.106Z,2.20
2023-05-11T10:11:58.199Z,2.10
2023-05-11T10:14:31.354Z,2.40
2023-05-11T10:17:03.785Z,2.80
2023-05-11T10:19:35.089Z,2.20
2023-05-11T10:22:07.202Z,2.20
2023-05-11T10:24:37.618Z,2.10
2023-05-11T10:27:08.959Z,1.80
2023-05-11T10:29:38.988Z,2.00
2023-05-11T10:32:11.283Z,2.60
2023-05-11T10:34:42.492Z,3.00
2023-05-11T10:37:12.880Z,2.80
2023-05-11T10:39:44.143Z,2.50
2023-05-11T10:42:33.225Z,2.60
2023-05-11T10:45:15.788Z,2.60
2023-05-11T10:48:02.491Z,2.70
2023-05-11T10:50:54.178Z,3.60
2023-05-11T10:53:56.041Z,3.00
2023-05-11T10:56:42.217Z,2.60
2023-05-11T10:59:44.700Z,2.70
2023-05-11T11:02:16.857Z,3.20
2023-05-11T11:04:49.280Z,2.70
2023-05-11T11:07:20.786Z,3.30
2023-05-11T11:09:56.609Z,2.20
2023-05-11T11:12:27.492Z,2.80
2023-05-11T11:14:59.202Z,2.90
2023-05-11T11:17:32.034Z,3.90
2023-05-11T11:20:04.375Z,3.10
2023-05-11T11:22:47.712Z,2.40
2023-05-11T11:25:54.460Z,2.80
2023-05-11T11:28:25.128Z,3.20
2023-05-11T11:31:23.000Z,2.80
2023-05-11T11:33:53.471Z,2.70
2023-05-11T11:36:58.142Z,2.70
2023-05-11T11:39:28.858Z,2.80
2023-05-11T11:42:03.490Z,2.40
2023-05-11T11:44:34.879Z,2.60
2023-05-11T11:47:15.236Z,2.80
2023-05-11T11:49:47.147Z,2.60
2023-05-11T11:52:34.760Z,2.80
2023-05-11T11:55:06.353Z,2.20
2023-05-11T11:57:50.758Z,2.40
2023-05-11T12:00:23.530Z,2.40
2023-05-11T12:02:55.954Z,2.70
2023-05-11T12:05:29.016Z,2.80
2023-05-11T12:08:05.988Z,2.60
2023-05-11T12:10:36.785Z,2.30
2023-05-11T12:13:06.989Z,2.20
2023-05-11T12:15:36.748Z,2.60
2023-05-11T12:18:26.744Z,2.10
2023-05-11T12:20:56.675Z,2.20
2023-05-11T12:23:27.166Z,1.70
2023-05-11T12:26:03.753Z,2.60
2023-05-11T12:28:34.252Z,2.20
2023-05-11T12:31:04.349Z,2.00
2023-05-11T12:33:34.758Z,1.90
2023-05-11T12:36:05.400Z,2.00
2023-05-11T12:38:43.305Z,2.20
2023-05-11T12:41:19.054Z,1.70
2023-05-11T12:43:49.887Z,1.60
2023-05-11T12:46:21.112Z,1.90
2023-05-11T12:48:52.141Z,1.70
2023-05-11T12:51:54.469Z,1.60
2023-05-11T12:54:33.937Z,2.00
2023-05-11T12:57:05.412Z,2.00
2023-05-11T12:59:37.825Z,1.70
2023-05-11T13:02:18.547Z,1.70
2023-05-11T13:04:49.231Z,1.80
2023-05-11T13:07:27.590Z,2.00
2023-05-11T13:10:01.582Z,1.70
2023-05-11T13:12:32.561Z,1.80
2023-05-11T13:15:15.227Z,2.10
2023-05-11T13:17:46.712Z,1.70
2023-05-11T13:20:29.500Z,2.30
2023-05-11T13:23:07.346Z,1.80
2023-05-11T13:25:53.767Z,2.20
2023-05-11T13:28:24.881Z,1.80
2023-05-11T13:31:02.841Z,1.60
2023-05-11T13:33:33.039Z,1.70
2023-05-11T13:36:03.849Z,1.70
2023-05-11T13:38:33.979Z,1.80
2023-05-11T13:41:06.468Z,1.70
2023-05-11T13:43:36.497Z,1.60
2023-05-11T13:46:07.230Z,1.70
2023-05-11T13:48:37.128Z,1.70
2023-05-11T13:51:07.214Z,2.20
2023-05-11T13:53:37.128Z,1.60
2023-05-11T13:56:07.687Z,1.90
2023-05-11T13:58:37.722Z,1.90
2023-05-11T14:01:08.671Z,2.20
2023-05-11T14:03:39.849Z,1.70
2023-05-11T14:06:10.048Z,2.40
2023-05-11T14:08:40.769Z,2.20
2023-05-11T14:11:10.796Z,2.30
2023-05-11T14:13:40.776Z,1.80
2023-05-11T14:16:10.872Z,2.30
2023-05-11T14:18:40.950Z,2.30
2023-05-11T14:21:11.375Z,2.10
2023-05-11T14:23:49.897Z,2.00
2023-05-11T14:26:24.168Z,2.20
2023-05-11T14:28:54.184Z,2.00
2023-05-11T14:31:24.754Z,1.80
2023-05-11T14:33:56.193Z,2.10
2023-05-11T14:36:27.485Z,2.10
2023-05-11T14:38:57.756Z,2.10
2023-05-11T14:41:27.987Z,2.10
2023-05-11T14:43:58.469Z,2.00
2023-05-11T14:46:28.421Z,1.80
2023-05-11T14:48:58.465Z,2.80
2023-05-11T14:51:28.631Z,2.10
2023-05-11T14:53:58.670Z,2.30
2023-05-11T14:56:28.652Z,2.20
2023-05-11T14:58:58.889Z,2.30
2023-05-11T15:01:28.715Z,2.30
2023-05-11T15:03:58.664Z,3.10
2023-05-11T15:06:30.494Z,2.30
2023-05-11T15:09:00.514Z,1.90
2023-05-11T15:11:30.681Z,1.80
2023-05-11T15:14:00.814Z,2.40
2023-05-11T15:16:31.202Z,2.10
2023-05-11T15:19:01.286Z,2.30
2023-05-11T15:21:31.301Z,2.40
2023-05-11T15:24:01.298Z,2.20
2023-05-11T15:26:31.536Z,2.40
2023-05-11T15:29:01.554Z,2.10
2023-05-11T15:31:31.986Z,2.10
2023-05-11T15:34:02.691Z,2.30
2023-05-11T15:36:32.862Z,2.20
2023-05-11T15:39:03.140Z,2.20
2023-05-11T15:41:34.318Z,2.30
2023-05-11T15:44:04.286Z,2.20
2023-05-11T15:46:36.687Z,2.10
2023-05-11T15:49:07.262Z,2.80
2023-05-11T15:51:37.390Z,2.00
2023-05-11T15:54:07.702Z,2.10
2023-05-11T15:56:37.659Z,0.90
2023-05-11T15:59:07.690Z,2.20
2023-05-11T16:01:37.631Z,2.00
2023-05-11T16:04:07.820Z,2.00
2023-05-11T16:06:37.947Z,2.00
2023-05-11T16:09:09.708Z,2.30
2023-05-11T16:11:40.418Z,2.40
2023-05-11T16:14:10.379Z,2.20
2023-05-11T16:16:40.912Z,2.60
2023-05-11T16:19:10.964Z,2.40
2023-05-11T16:21:41.437Z,2.40
2023-05-11T16:24:11.588Z,2.50
2023-05-11T16:26:41.598Z,2.30
2023-05-11T16:29:12.217Z,2.10
2023-05-11T16:31:42.270Z,2.30
2023-05-11T16:34:12.348Z,2.50
2023-05-11T16:36:43.181Z,2.10
2023-05-11T16:39:13.411Z,2.70
2023-05-11T16:41:43.780Z,2.50
2023-05-11T16:44:13.680Z,2.40
2023-05-11T16:46:43.881Z,2.40
2023-05-11T16:49:13.901Z,2.40
2023-05-11T16:51:44.087Z,2.50
2023-05-11T16:54:14.600Z,2.40
2023-05-11T16:56:44.809Z,2.30
2023-05-11T16:59:14.648Z,2.30
2023-05-11T17:01:45.797Z,2.10
2023-05-11T17:04:16.193Z,2.40
2023-05-11T17:06:46.210Z,2.60
2023-05-11T17:09:16.548Z,2.50
2023-05-11T17:11:48.019Z,2.60
2023-05-11T17:14:18.712Z,2.90
2023-05-11T17:16:48.737Z,3.10
2023-05-11T17:19:18.876Z,4.80
2023-05-11T17:21:49.049Z,3.30
2023-05-11T17:24:19.205Z,3.40
2023-05-11T17:26:49.430Z,2.70
2023-05-11T17:29:19.338Z,2.90
2023-05-11T17:31:51.012Z,3.80
2023-05-11T17:34:25.827Z,4.20
2023-05-11T17:36:58.599Z,3.60
2023-05-11T17:39:30.529Z,3.80
2023-05-11T17:42:00.787Z,3.50
2023-05-11T17:44:31.273Z,3.30
2023-05-11T17:47:02.003Z,3.00
2023-05-11T17:49:32.349Z,3.10
2023-05-11T17:52:02.585Z,3.40
2023-05-11T17:54:32.812Z,2.80
2023-05-11T17:57:04.719Z,3.00
2023-05-11T17:59:35.167Z,3.50
2023-05-11T18:02:05.369Z,3.20
2023-05-11T18:04:36.072Z,3.60
2023-05-11T18:07:06.951Z,3.60
2023-05-11T18:09:37.190Z,3.60
2023-05-11T18:12:09.165Z,3.90
2023-05-11T18:14:39.686Z,4.30
2023-05-11T18:17:10.003Z,3.90
2023-05-11T18:19:40.476Z,4.00
2023-05-11T18:22:13.899Z,4.10
2023-05-11T18:24:44.628Z,4.50
2023-05-11T18:27:14.481Z,5.00
2023-05-11T18:29:44.842Z,4.50
2023-05-11T18:32:14.756Z,4.70
2023-05-11T18:34:45.072Z,5.60
2023-05-11T18:37:16.095Z,4.70
2023-05-11T18:39:47.371Z,4.10
2023-05-11T18:42:17.454Z,4.10
2023-05-11T18:44:47.178Z,3.80
2023-05-11T18:47:17.424Z,3.90
2023-05-11T18:49:49.262Z,4.20
2023-05-11T18:52:21.696Z,3.70
2023-05-11T18:54:56.543Z,3.70
2023-05-11T18:57:27.897Z,4.00
2023-05-11T18:59:58.119Z,4.30
2023-05-11T19:02:28.369Z,3.30
2023-05-11T19:04:58.841Z,4.00
2023-05-11T19:07:29.269Z,3.60
2023-05-11T19:10:20.293Z,4.60
2023-05-11T19:12:53.270Z,3.30
2023-05-11T19:15:24.924Z,3.80
2023-05-11T19:17:55.605Z,3.80
2023-05-11T19:20:25.593Z,3.50
2023-05-11T19:22:55.849Z,3.60
2023-05-11T19:25:25.757Z,3.80
2023-05-11T19:27:56.960Z,3.50
2023-05-11T19:30:27.199Z,3.90
2023-05-11T19:32:57.279Z,4.10
2023-05-11T19:35:28.377Z,3.00
2023-05-11T19:37:58.535Z,3.40
2023-05-11T19:43:02.440Z,3.80
2023-05-11T19:45:33.750Z,4.00
2023-05-11T19:48:04.017Z,3.90
2023-05-11T19:50:34.516Z,4.30
2023-05-11T19:53:04.500Z,4.10
2023-05-11T19:55:34.986Z,4.20
2023-05-11T19:58:06.856Z,4.50
2023-05-11T20:00:36.786Z,4.20
2023-05-11T20:03:07.371Z,4.20
2023-05-11T20:05:39.967Z,4.30
2023-05-11T20:08:11.234Z,4.40
2023-05-11T20:10:41.148Z,4.40
2023-05-11T20:13:12.012Z,4.10
2023-05-11T20:15:42.639Z,4.50
2023-05-11T20:18:13.733Z,4.50
2023-05-11T20:20:43.668Z,4.20
2023-05-11T20:23:13.618Z,4.50
2023-05-11T20:25:43.951Z,4.60
2023-05-11T20:28:14.047Z,4.60
2023-05-11T20:30:43.856Z,4.90
2023-05-11T20:35:47.507Z,4.70
2023-05-11T20:38:17.589Z,4.60
2023-05-11T20:40:47.859Z,4.00
2023-05-11T20:43:18.007Z,4.20
2023-05-11T20:45:48.628Z,4.70
2023-05-11T20:48:25.973Z,4.10
2023-05-11T20:51:06.290Z,4.00
2023-05-11T20:53:36.864Z,4.70
2023-05-11T20:56:08.151Z,4.40
2023-05-11T20:58:39.019Z,4.30
2023-05-11T21:01:08.900Z,4.30
2023-05-11T21:03:39.635Z,4.90
2023-05-11T21:06:09.888Z,4.70
2023-05-11T21:08:41.942Z,5.00
2023-05-11T21:11:12.329Z,5.00
2023-05-11T21:13:42.339Z,5.60
2023-05-11T21:16:12.371Z,4.90
2023-05-11T21:18:42.970Z,4.50
2023-05-11T21:21:13.248Z,4.80
2023-05-11T21:23:43.289Z,4.90
2023-05-11T21:26:13.223Z,4.80
2023-05-11T21:28:43.146Z,4.70
2023-05-11T21:31:13.023Z,4.70
2023-05-11T21:33:42.996Z,5.40
2023-05-11T21:36:13.101Z,4.70
2023-05-11T21:38:43.098Z,4.20
2023-05-11T21:41:12.970Z,4.70
2023-05-11T21:43:42.932Z,5.10
2023-05-11T21:46:13.174Z,4.60
2023-05-11T21:48:43.078Z,4.40
2023-05-11T21:51:13.508Z,4.90
2023-05-11T21:53:43.433Z,4.50
2023-05-11T21:56:13.396Z,4.20
2023-05-11T21:58:43.377Z,4.20
2023-05-11T22:01:13.737Z,4.80
2023-05-11T22:03:43.787Z,4.20
2023-05-11T22:06:14.017Z,4.30
2023-05-11T22:08:44.023Z,4.40
2023-05-11T22:11:14.224Z,3.80
2023-05-11T22:13:44.449Z,4.30
2023-05-11T22:16:14.629Z,4.80
2023-05-11T22:18:44.632Z,4.20
2023-05-11T22:21:14.955Z,4.30
2023-05-11T22:23:45.222Z,4.70
2023-05-11T22:26:15.260Z,4.90
2023-05-11T22:28:45.570Z,3.90
2023-05-11T22:31:15.476Z,4.60
2023-05-11T22:33:45.451Z,4.30
2023-05-11T22:36:15.708Z,4.70
2023-05-11T22:38:45.484Z,4.10
2023-05-11T22:41:15.736Z,4.90
2023-05-11T22:43:47.459Z,5.20
2023-05-11T22:46:19.191Z,4.70
2023-05-11T22:48:49.456Z,4.60
2023-05-11T22:51:19.896Z,3.90
2023-05-11T22:53:49.706Z,4.70
2023-05-11T22:56:19.664Z,4.50
2023-05-11T22:58:49.727Z,4.20
2023-05-11T23:01:20.055Z,4.40
2023-05-11T23:03:50.102Z,5.00
2023-05-11T23:06:20.719Z,4.30
2023-05-11T23:08:52.644Z,4.70
2023-05-11T23:11:22.979Z,4.40
2023-05-11T23:13:53.020Z,4.40
2023-05-11T23:16:23.568Z,4.60
2023-05-11T23:18:53.791Z,4.10
2023-05-11T23:21:24.484Z,4.50
2023-05-11T23:23:54.487Z,4.50
2023-05-11T23:26:24.397Z,4.40
2023-05-11T23:28:54.470Z,4.40
2023-05-11T23:31:24.656Z,4.40
2023-05-11T23:33:54.811Z,4.20
2023-05-11T23:36:24.753Z,4.20
2023-05-11T23:38:54.831Z,4.80
2023-05-11T23:41:24.776Z,4.30
2023-05-11T23:43:54.981Z,4.30
2023-05-11T23:46:24.973Z,4.40
2023-05-11T23:48:55.562Z,4.40
2023-05-11T23:51:25.857Z,3.80
2023-05-11T23:53:56.031Z,4.00
2023-05-11T23:56:27.315Z,4.00
2023-05-11T23:58:57.436Z,4.00
